createdAt,value
2023-05-01T00:01:53.279Z,20.20
2023-05-01T00:04:22.057Z,20.40
2023-05-01T00:06:49.414Z,20.40
2023-05-01T00:09:16.827Z,20.30
2023-05-01T00:11:43.920Z,20.20
2023-05-01T00:14:10.874Z,20.20
2023-05-01T00:16:38.171Z,20.50
2023-05-01T00:19:05.387Z,20.50
2023-05-01T00:21:32.718Z,20.50
2023-05-01T00:23:59.752Z,20.40
2023-05-01T00:26:30.653Z,20.30
2023-05-01T00:28:58.495Z,20.30
2023-05-01T00:31:26.148Z,20.40
2023-05-01T00:33:53.426Z,20.40
2023-05-01T00:36:20.706Z,20.40
2023-05-01T00:38:47.893Z,20.90
2023-05-01T00:41:15.155Z,20.90
2023-05-01T00:43:42.284Z,20.80
2023-05-01T00:46:10.142Z,20.70
2023-05-01T00:48:37.588Z,20.70
2023-05-01T00:51:08.911Z,20.50
2023-05-01T00:53:36.358Z,20.40
2023-05-01T00:56:04.393Z,20.60
2023-05-01T00:58:31.585Z,21.00
2023-05-01T01:00:58.718Z,20.90
2023-05-01T01:03:25.870Z,20.90
2023-05-01T01:06:27.882Z,20.80
2023-05-01T01:09:32.092Z,21.40
2023-05-01T01:12:05.084Z,21.90
2023-05-01T01:14:39.242Z,22.00
2023-05-01T01:17:14.123Z,21.70
2023-05-01T01:20:20.141Z,21.40
2023-05-01T01:22:56.300Z,21.60
2023-05-01T01:25:48.028Z,21.50
2023-05-01T01:28:44.297Z,21.10
2023-05-01T01:31:36.685Z,20.70
2023-05-01T01:34:04.897Z,20.60
2023-05-01T01:36:47.996Z,20.60
2023-05-01T01:39:38.012Z,20.70
2023-05-01T01:42:10.652Z,20.60
2023-05-01T01:44:55.803Z,20.60
2023-05-01T01:47:28.419Z,20.50
2023-05-01T01:49:57.288Z,20.30
2023-05-01T01:52:26.576Z,20.20
2023-05-01T01:55:07.257Z,20.10
2023-05-01T01:57:38.006Z,20.00
2023-05-01T02:00:09.079Z,20.00
2023-05-01T02:02:38.322Z,19.90
2023-05-01T02:05:08.877Z,19.80
2023-05-01T02:07:40.339Z,19.80
2023-05-01T02:10:09.849Z,19.90
2023-05-01T02:12:37.593Z,19.90
2023-05-01T02:15:07.427Z,19.90
2023-05-01T02:17:36.794Z,19.90
2023-05-01T02:20:05.204Z,20.00
2023-05-01T02:22:33.576Z,20.00
2023-05-01T02:25:01.985Z,19.90
2023-05-01T02:27:36.547Z,20.00
2023-05-01T02:30:05.840Z,19.80
2023-05-01T02:32:34.053Z,19.60
2023-05-01T02:35:01.509Z,19.70
2023-05-01T02:37:30.463Z,19.80
2023-05-01T02:39:58.367Z,19.60
2023-05-01T02:42:27.849Z,19.70
2023-05-01T02:44:58.829Z,19.90
2023-05-01T02:47:29.054Z,19.90
2023-05-01T02:49:57.598Z,19.90
2023-05-01T02:52:25.169Z,20.00
2023-05-01T02:54:52.378Z,20.00
2023-05-01T02:57:20.397Z,20.00
2023-05-01T02:59:47.530Z,20.00
2023-05-01T03:02:15.981Z,19.90
2023-05-01T03:04:44.043Z,19.90
2023-05-01T03:07:11.149Z,19.80
2023-05-01T03:09:38.619Z,20.00
2023-05-01T03:12:05.963Z,19.90
2023-05-01T03:14:33.422Z,19.80
2023-05-01T03:17:00.485Z,19.70
2023-05-01T03:19:27.561Z,19.80
2023-05-01T03:21:54.516Z,19.70
2023-05-01T03:24:21.930Z,19.60
2023-05-01T03:26:48.953Z,19.70
2023-05-01T03:29:16.093Z,19.80
2023-05-01T03:31:43.099Z,19.70
2023-05-01T03:34:10.091Z,19.70
2023-05-01T03:36:37.111Z,19.70
2023-05-01T03:39:04.989Z,19.70
2023-05-01T03:41:32.078Z,19.70
2023-05-01T03:43:59.199Z,19.70
2023-05-01T03:46:26.263Z,19.80
2023-05-01T03:48:53.289Z,19.70
2023-05-01T03:51:20.339Z,19.70
2023-05-01T03:53:47.444Z,19.70
2023-05-01T03:56:14.494Z,19.80
2023-05-01T03:58:41.461Z,19.80
2023-05-01T04:01:08.721Z,19.80
2023-05-01T04:03:35.952Z,19.80
2023-05-01T04:06:03.517Z,19.80
2023-05-01T04:08:30.702Z,19.80
2023-05-01T04:10:57.720Z,19.90
2023-05-01T04:13:24.849Z,19.80
2023-05-01T04:15:51.852Z,19.90
2023-05-01T04:18:18.923Z,19.70
2023-05-01T04:20:46.148Z,19.80
2023-05-01T04:23:13.089Z,19.90
2023-05-01T04:25:40.117Z,19.90
2023-05-01T04:28:07.711Z,19.90
2023-05-01T04:30:34.800Z,19.80
2023-05-01T04:33:02.014Z,20.10
2023-05-01T04:35:29.173Z,20.00
2023-05-01T04:37:56.200Z,19.90
2023-05-01T04:40:23.185Z,19.80
2023-05-01T04:42:50.197Z,19.70
2023-05-01T04:45:17.493Z,19.70
2023-05-01T04:47:44.534Z,19.70
2023-05-01T04:50:12.041Z,19.80
2023-05-01T04:52:39.286Z,19.70
2023-05-01T04:55:06.868Z,19.60
2023-05-01T04:57:33.880Z,19.70
2023-05-01T05:00:00.938Z,20.00
2023-05-01T05:02:28.014Z,20.10
2023-05-01T05:04:55.125Z,20.00
2023-05-01T05:07:23.139Z,19.90
2023-05-01T05:09:50.223Z,20.10
2023-05-01T05:12:18.073Z,20.00
2023-05-01T05:14:45.061Z,20.30
2023-05-01T05:17:12.101Z,20.00
2023-05-01T05:19:39.169Z,20.00
2023-05-01T05:22:06.155Z,19.80
2023-05-01T05:24:33.073Z,19.70
2023-05-01T05:27:00.219Z,19.80
2023-05-01T05:29:27.288Z,19.80
2023-05-01T05:31:54.387Z,19.80
2023-05-01T05:34:21.477Z,19.80
2023-05-01T05:36:48.592Z,20.00
2023-05-01T05:39:15.568Z,20.10
2023-05-01T05:41:42.734Z,20.40
2023-05-01T05:44:09.703Z,20.30
2023-05-01T05:46:36.963Z,20.60
2023-05-01T05:49:04.128Z,20.40
2023-05-01T05:51:31.717Z,20.60
2023-05-01T05:53:58.850Z,20.60
2023-05-01T05:56:26.033Z,20.50
2023-05-01T05:58:53.001Z,20.20
2023-05-01T06:01:19.970Z,19.90
2023-05-01T06:03:47.163Z,19.70
2023-05-01T06:06:14.664Z,19.90
2023-05-01T06:08:41.657Z,19.90
2023-05-01T06:11:09.333Z,19.60
2023-05-01T06:13:36.589Z,19.90
2023-05-01T06:16:04.953Z,20.00
2023-05-01T06:18:32.001Z,20.10
2023-05-01T06:21:00.191Z,20.30
2023-05-01T06:23:27.151Z,19.90
2023-05-01T06:25:54.181Z,19.90
2023-05-01T06:28:21.652Z,19.90
2023-05-01T06:30:48.614Z,19.20
2023-05-01T06:33:16.524Z,19.70
2023-05-01T06:35:43.640Z,19.00
2023-05-01T06:38:10.743Z,18.90
2023-05-01T06:40:37.841Z,19.40
2023-05-01T06:43:05.159Z,19.10
2023-05-01T06:45:32.378Z,18.60
2023-05-01T06:47:59.392Z,18.70
2023-05-01T06:50:28.953Z,19.20
2023-05-01T06:52:56.129Z,19.40
2023-05-01T06:55:23.322Z,19.50
2023-05-01T06:57:51.832Z,19.60
2023-05-01T07:00:19.331Z,18.80
2023-05-01T07:02:46.625Z,18.50
2023-05-01T07:05:13.854Z,18.40
2023-05-01T07:07:47.246Z,18.00
2023-05-01T07:10:17.912Z,18.30
2023-05-01T07:12:44.962Z,17.80
2023-05-01T07:15:12.487Z,17.60
2023-05-01T07:17:39.559Z,17.40
2023-05-01T07:20:07.270Z,17.20
2023-05-01T07:22:34.413Z,17.20
2023-05-01T07:25:03.363Z,16.90
2023-05-01T07:27:30.357Z,17.50
2023-05-01T07:29:58.444Z,17.70
2023-05-01T07:32:27.873Z,18.00
2023-05-01T07:34:54.944Z,17.30
2023-05-01T07:37:21.946Z,17.50
2023-05-01T07:39:49.054Z,17.50
2023-05-01T07:42:16.309Z,16.80
2023-05-01T07:44:43.315Z,17.00
2023-05-01T07:47:10.460Z,16.70
2023-05-01T07:49:38.854Z,16.60
2023-05-01T07:52:08.960Z,17.00
2023-05-01T07:54:36.180Z,17.00
2023-05-01T07:57:04.517Z,17.20
2023-05-01T07:59:31.518Z,16.90
2023-05-01T08:01:58.632Z,17.00
2023-05-01T08:04:28.387Z,16.80
2023-05-01T08:06:55.505Z,16.50
2023-05-01T08:09:22.555Z,16.90
2023-05-01T08:11:49.623Z,17.00
2023-05-01T08:14:17.767Z,17.00
2023-05-01T08:16:45.074Z,16.90
2023-05-01T08:19:12.279Z,17.30
2023-05-01T08:21:39.388Z,16.90
2023-05-01T08:24:10.326Z,16.30
2023-05-01T08:26:37.469Z,16.30
2023-05-01T08:29:04.423Z,17.00
2023-05-01T08:31:31.545Z,16.70
2023-05-01T08:33:58.640Z,17.30
2023-05-01T08:36:25.571Z,18.10
2023-05-01T08:38:52.531Z,17.90
2023-05-01T08:41:22.575Z,17.40
2023-05-01T08:43:50.225Z,17.30
2023-05-01T08:46:39.185Z,16.60
2023-05-01T08:49:07.077Z,16.50
2023-05-01T08:51:36.815Z,16.90
2023-05-01T08:54:05.959Z,17.20
2023-05-01T08:56:36.435Z,18.20
2023-05-01T08:59:05.403Z,18.00
2023-05-01T09:01:34.373Z,18.20
2023-05-01T09:04:04.444Z,17.40
2023-05-01T09:06:34.841Z,17.70
2023-05-01T09:09:03.709Z,17.50
2023-05-01T09:11:30.978Z,18.10
2023-05-01T09:13:59.180Z,18.20
2023-05-01T09:16:28.116Z,17.80
2023-05-01T09:18:55.908Z,17.40
2023-05-01T09:21:24.678Z,17.20
2023-05-01T09:23:52.048Z,17.60
2023-05-01T09:26:19.241Z,17.80
2023-05-01T09:28:58.119Z,17.30
2023-05-01T09:31:32.941Z,16.60
2023-05-01T09:34:01.963Z,17.10
2023-05-01T09:36:33.741Z,17.30
2023-05-01T09:39:01.863Z,17.40
2023-05-01T09:41:31.666Z,17.40
2023-05-01T09:43:59.257Z,17.10
2023-05-01T09:46:27.319Z,16.70
2023-05-01T09:48:59.113Z,17.10
2023-05-01T09:51:30.623Z,17.10
2023-05-01T09:54:01.584Z,16.20
2023-05-01T09:56:30.701Z,16.30
2023-05-01T09:59:07.823Z,17.00
2023-05-01T10:01:43.386Z,15.90
2023-05-01T10:04:10.960Z,16.40
2023-05-01T10:06:39.015Z,16.10
2023-05-01T10:09:08.402Z,16.20
2023-05-01T10:11:49.738Z,16.10
2023-05-01T10:14:16.733Z,16.10
2023-05-01T10:16:44.966Z,15.80
2023-05-01T10:19:12.921Z,15.80
2023-05-01T10:21:39.915Z,15.80
2023-05-01T10:24:08.490Z,15.80
2023-05-01T10:26:36.672Z,15.30
2023-05-01T10:29:04.399Z,15.40
2023-05-01T10:31:33.285Z,16.10
2023-05-01T10:34:02.094Z,16.60
2023-05-01T10:36:43.022Z,16.70
2023-05-01T10:39:28.810Z,17.00
2023-05-01T10:41:58.702Z,16.70
2023-05-01T10:44:27.339Z,16.80
2023-05-01T10:46:55.697Z,16.80
2023-05-01T10:49:22.989Z,16.20
2023-05-01T10:52:00.657Z,16.50
2023-05-01T10:54:36.490Z,16.90
2023-05-01T10:57:04.227Z,16.40
2023-05-01T10:59:58.848Z,16.80
2023-05-01T11:02:26.909Z,15.90
2023-05-01T11:04:56.294Z,17.10
2023-05-01T11:07:25.007Z,17.00
2023-05-01T11:10:00.520Z,17.00
2023-05-01T11:12:48.432Z,16.80
2023-05-01T11:15:32.533Z,17.00
2023-05-01T11:18:01.635Z,17.20
2023-05-01T11:20:29.273Z,16.00
2023-05-01T11:22:57.582Z,15.80
2023-05-01T11:25:27.917Z,15.60
2023-05-01T11:27:58.120Z,15.50
2023-05-01T11:30:25.436Z,15.30
2023-05-01T11:32:52.811Z,15.80
2023-05-01T11:35:21.822Z,15.70
2023-05-01T11:37:57.022Z,15.80
2023-05-01T11:40:24.027Z,15.30
2023-05-01T11:42:59.885Z,15.00
2023-05-01T11:45:27.050Z,14.90
2023-05-01T11:47:54.485Z,15.40
2023-05-01T11:50:24.390Z,15.30
2023-05-01T11:52:55.960Z,15.40
2023-05-01T11:55:34.949Z,15.80
2023-05-01T11:58:02.783Z,15.70
2023-05-01T12:00:38.348Z,15.50
2023-05-01T12:03:06.995Z,15.10
2023-05-01T12:05:37.331Z,15.10
2023-05-01T12:08:10.138Z,14.60
2023-05-01T12:10:38.379Z,15.10
2023-05-01T12:13:06.658Z,15.90
2023-05-01T12:15:36.815Z,16.00
2023-05-01T12:18:06.074Z,15.60
2023-05-01T12:20:40.931Z,15.90
2023-05-01T12:23:10.876Z,15.70
2023-05-01T12:25:39.512Z,15.50
2023-05-01T12:28:20.496Z,15.20
2023-05-01T12:30:51.569Z,14.50
2023-05-01T12:33:20.365Z,14.50
2023-05-01T12:35:49.436Z,14.70
2023-05-01T12:38:18.714Z,14.90
2023-05-01T12:40:57.845Z,14.70
2023-05-01T12:43:32.911Z,15.00
2023-05-01T12:46:00.969Z,14.20
2023-05-01T12:48:28.270Z,14.80
2023-05-01T12:50:55.583Z,14.80
2023-05-01T12:53:24.353Z,14.30
2023-05-01T12:55:54.195Z,14.70
2023-05-01T12:58:21.753Z,13.80
2023-05-01T13:00:52.527Z,13.60
2023-05-01T13:03:27.112Z,14.00
2023-05-01T13:06:03.292Z,14.40
2023-05-01T13:08:36.972Z,14.60
2023-05-01T13:11:30.695Z,14.50
2023-05-01T13:14:08.820Z,15.10
2023-05-01T13:16:46.422Z,14.90
2023-05-01T13:19:14.210Z,14.90
2023-05-01T13:21:49.485Z,15.10
2023-05-01T13:24:16.568Z,15.10
2023-05-01T13:26:45.313Z,14.80
2023-05-01T13:29:16.136Z,14.80
2023-05-01T13:31:44.125Z,14.80
2023-05-01T13:34:11.190Z,15.00
2023-05-01T13:36:40.618Z,15.00
2023-05-01T13:39:07.559Z,15.60
2023-05-01T13:41:35.994Z,15.40
2023-05-01T13:44:07.305Z,15.80
2023-05-01T13:46:36.028Z,15.70
2023-05-01T13:49:08.152Z,15.40
2023-05-01T13:51:37.900Z,15.60
2023-05-01T13:54:07.221Z,15.10
2023-05-01T13:56:40.688Z,15.10
2023-05-01T13:59:10.178Z,14.40
2023-05-01T14:01:47.594Z,14.50
2023-05-01T14:04:20.714Z,14.60
2023-05-01T14:06:48.795Z,14.80
2023-05-01T14:09:19.347Z,14.80
2023-05-01T14:11:50.773Z,15.60
2023-05-01T14:14:18.799Z,16.00
2023-05-01T14:16:51.181Z,16.20
2023-05-01T14:19:18.628Z,16.50
2023-05-01T14:21:47.164Z,16.50
2023-05-01T14:24:18.272Z,17.50
2023-05-01T14:26:48.597Z,16.60
2023-05-01T14:29:27.323Z,16.40
2023-05-01T14:31:55.975Z,16.80
2023-05-01T14:34:23.357Z,16.20
2023-05-01T14:36:50.772Z,15.90
2023-05-01T14:39:18.707Z,16.10
2023-05-01T14:41:46.557Z,16.10
2023-05-01T14:44:16.580Z,16.10
2023-05-01T14:46:47.492Z,15.50
2023-05-01T14:49:25.187Z,15.20
2023-05-01T14:51:53.738Z,15.40
2023-05-01T14:54:21.354Z,15.70
2023-05-01T14:56:49.285Z,15.50
2023-05-01T14:59:16.440Z,15.40
2023-05-01T15:01:44.153Z,15.40
2023-05-01T15:04:12.756Z,15.50
2023-05-01T15:06:40.107Z,15.40
2023-05-01T15:09:07.174Z,15.60
2023-05-01T15:11:36.587Z,15.60
2023-05-01T15:14:04.158Z,15.90
2023-05-01T15:16:32.756Z,16.00
2023-05-01T15:19:00.498Z,16.10
2023-05-01T15:21:27.527Z,16.00
2023-05-01T15:23:54.639Z,15.80
2023-05-01T15:26:21.674Z,15.90
2023-05-01T15:28:48.670Z,16.10
2023-05-01T15:31:19.376Z,16.70
2023-05-01T15:33:51.512Z,17.00
2023-05-01T15:36:22.159Z,17.20
2023-05-01T15:38:49.602Z,17.60
2023-05-01T15:41:18.847Z,17.40
2023-05-01T15:43:46.330Z,17.00
2023-05-01T15:46:16.450Z,17.20
2023-05-01T15:48:43.694Z,17.10
2023-05-01T15:51:10.792Z,17.30
2023-05-01T15:53:37.827Z,17.60
2023-05-01T15:56:09.842Z,18.30
2023-05-01T15:58:36.925Z,18.40
2023-05-01T16:01:04.621Z,18.50
2023-05-01T16:03:32.134Z,18.00
2023-05-01T16:05:59.985Z,18.20
2023-05-01T16:08:28.902Z,18.10
2023-05-01T16:10:57.955Z,18.50
2023-05-01T16:13:25.111Z,18.20
2023-05-01T16:15:52.086Z,18.40
2023-05-01T16:18:23.488Z,18.10
2023-05-01T16:20:56.102Z,18.10
2023-05-01T16:23:26.703Z,18.30
2023-05-01T16:25:53.976Z,18.60
2023-05-01T16:28:21.007Z,18.30
2023-05-01T16:30:48.935Z,18.40
2023-05-01T16:33:23.288Z,18.30
2023-05-01T16:35:53.608Z,18.00
2023-05-01T16:38:20.771Z,18.00
2023-05-01T16:40:48.446Z,18.10
2023-05-01T16:43:15.734Z,18.40
2023-05-01T16:45:42.821Z,18.60
2023-05-01T16:48:10.581Z,18.20
2023-05-01T16:50:41.383Z,18.30
2023-05-01T16:53:08.389Z,18.40
2023-05-01T16:55:35.792Z,18.30
2023-05-01T16:58:02.786Z,18.50
2023-05-01T17:00:29.953Z,18.40
2023-05-01T17:02:59.182Z,18.50
2023-05-01T17:05:26.655Z,18.60
2023-05-01T17:07:58.984Z,19.20
2023-05-01T17:10:29.091Z,19.00
2023-05-01T17:13:03.482Z,18.70
2023-05-01T17:15:30.744Z,18.70
2023-05-01T17:18:02.399Z,18.40
2023-05-01T17:20:29.596Z,18.50
2023-05-01T17:22:56.894Z,18.40
2023-05-01T17:25:23.881Z,18.50
2023-05-01T17:27:50.894Z,18.60
2023-05-01T17:30:18.628Z,18.50
2023-05-01T17:32:45.808Z,18.40
2023-05-01T17:35:12.878Z,18.20
2023-05-01T17:37:40.094Z,18.10
2023-05-01T17:40:09.014Z,18.20
2023-05-01T17:42:37.589Z,18.30
2023-05-01T17:45:07.593Z,18.10
2023-05-01T17:47:35.044Z,18.10
2023-05-01T17:50:04.897Z,18.30
2023-05-01T17:52:32.031Z,18.20
2023-05-01T17:54:59.029Z,18.20
2023-05-01T17:57:26.914Z,18.10
2023-05-01T17:59:54.157Z,18.20
2023-05-01T18:02:22.054Z,17.80
2023-05-01T18:04:50.429Z,17.80
2023-05-01T18:07:17.640Z,17.80
2023-05-01T18:09:47.246Z,17.90
2023-05-01T18:12:14.361Z,17.70
2023-05-01T18:14:41.815Z,17.50
2023-05-01T18:17:09.054Z,17.20
2023-05-01T18:19:36.298Z,17.10
2023-05-01T18:22:04.392Z,17.10
2023-05-01T18:24:31.920Z,16.90
2023-05-01T18:27:01.022Z,16.90
2023-05-01T18:29:28.146Z,16.90
2023-05-01T18:31:58.413Z,17.00
2023-05-01T18:34:25.601Z,17.20
2023-05-01T18:36:59.742Z,17.10
2023-05-01T18:39:26.904Z,17.20
2023-05-01T18:41:55.447Z,17.20
2023-05-01T18:44:25.407Z,17.20
2023-05-01T18:46:55.469Z,17.20
2023-05-01T18:49:24.089Z,17.10
2023-05-01T18:51:52.118Z,17.10
2023-05-01T18:54:19.150Z,17.10
2023-05-01T18:56:51.382Z,17.00
2023-05-01T18:59:18.727Z,17.20
2023-05-01T19:01:45.852Z,17.40
2023-05-01T19:04:12.981Z,17.40
2023-05-01T19:06:43.093Z,17.40
2023-05-01T19:09:11.245Z,17.30
2023-05-01T19:11:38.286Z,17.40
2023-05-01T19:14:07.559Z,17.40
2023-05-01T19:16:34.773Z,17.30
2023-05-01T19:19:02.039Z,17.30
2023-05-01T19:21:29.060Z,17.10
2023-05-01T19:23:56.563Z,17.10
2023-05-01T19:26:24.034Z,17.00
2023-05-01T19:28:51.142Z,16.90
2023-05-01T19:31:19.747Z,17.00
2023-05-01T19:33:54.901Z,17.10
2023-05-01T19:36:22.397Z,17.00
2023-05-01T19:38:49.427Z,17.00
2023-05-01T19:41:16.490Z,17.00
2023-05-01T19:43:43.532Z,17.00
2023-05-01T19:46:10.582Z,16.90
2023-05-01T19:48:38.230Z,16.90
2023-05-01T19:51:05.280Z,17.00
2023-05-01T19:53:32.339Z,17.00
2023-05-01T19:55:59.462Z,16.90
2023-05-01T19:58:27.859Z,16.90
2023-05-01T20:00:58.442Z,17.20
2023-05-01T20:03:25.768Z,17.80
2023-05-01T20:05:53.308Z,17.00
2023-05-01T20:08:20.822Z,16.70
2023-05-01T20:10:47.895Z,16.80
2023-05-01T20:13:15.787Z,17.10
2023-05-01T20:15:43.322Z,17.20
2023-05-01T20:18:13.070Z,17.40
2023-05-01T20:20:40.525Z,17.30
2023-05-01T20:23:13.433Z,16.90
2023-05-01T20:25:41.298Z,16.90
2023-05-01T20:28:10.714Z,17.90
2023-05-01T20:30:40.534Z,17.80
2023-05-01T20:33:10.730Z,17.30
2023-05-01T20:35:38.507Z,17.30
2023-05-01T20:38:05.647Z,17.30
2023-05-01T20:40:34.170Z,17.20
2023-05-01T20:43:01.369Z,17.20
2023-05-01T20:45:33.556Z,17.30
2023-05-01T20:48:02.013Z,17.30
2023-05-01T20:50:29.376Z,17.40
2023-05-01T20:52:56.533Z,17.50
2023-05-01T20:55:24.169Z,17.50
2023-05-01T20:57:51.483Z,17.60
2023-05-01T21:00:18.696Z,17.30
2023-05-01T21:02:45.780Z,17.70
2023-05-01T21:05:16.324Z,17.50
2023-05-01T21:07:43.379Z,17.50
2023-05-01T21:10:11.372Z,17.40
2023-05-01T21:12:38.983Z,17.50
2023-05-01T21:15:06.386Z,17.50
2023-05-01T21:17:35.220Z,17.50
2023-05-01T21:20:04.558Z,17.50
2023-05-01T21:22:31.593Z,17.50
2023-05-01T21:25:00.532Z,17.50
2023-05-01T21:27:27.929Z,17.40
2023-05-01T21:30:00.503Z,17.50
2023-05-01T21:32:35.004Z,17.50
2023-05-01T21:35:03.806Z,17.60
2023-05-01T21:37:33.103Z,17.70
2023-05-01T21:40:01.120Z,17.60
2023-05-01T21:42:36.051Z,17.70
2023-05-01T21:45:12.097Z,17.60
2023-05-01T21:47:41.197Z,17.90
2023-05-01T21:50:11.234Z,17.90
2023-05-01T21:52:39.105Z,18.10
2023-05-01T21:55:10.588Z,17.80
2023-05-01T21:57:38.987Z,17.80
2023-05-01T22:00:10.045Z,17.80
2023-05-01T22:02:41.294Z,17.90
2023-05-01T22:05:09.469Z,18.00
2023-05-01T22:07:41.104Z,17.80
2023-05-01T22:10:18.189Z,18.20
2023-05-01T22:12:45.928Z,18.30
2023-05-01T22:15:15.692Z,18.50
2023-05-01T22:17:43.651Z,18.40
2023-05-01T22:20:11.086Z,18.50
2023-05-01T22:22:40.670Z,18.50
2023-05-01T22:25:08.862Z,19.00
2023-05-01T22:27:36.397Z,18.90
2023-05-01T22:30:04.503Z,18.70
2023-05-01T22:32:31.652Z,18.70
2023-05-01T22:34:58.825Z,18.70
2023-05-01T22:37:25.972Z,18.80
2023-05-01T22:39:54.054Z,18.70
2023-05-01T22:42:21.807Z,18.70
2023-05-01T22:44:49.098Z,18.70
2023-05-01T22:47:16.327Z,18.60
2023-05-01T22:49:43.266Z,18.60
2023-05-01T22:52:10.282Z,18.60
2023-05-01T22:54:37.339Z,18.50
2023-05-01T22:57:04.398Z,18.50
2023-05-01T22:59:31.392Z,18.80
2023-05-01T23:01:58.530Z,19.10
2023-05-01T23:04:25.967Z,19.00
2023-05-01T23:06:52.952Z,19.20
2023-05-01T23:09:19.987Z,19.10
2023-05-01T23:11:47.920Z,19.30
2023-05-01T23:14:18.606Z,19.50
2023-05-01T23:16:45.934Z,19.70
2023-05-01T23:19:21.749Z,20.00
2023-05-01T23:21:50.548Z,20.00
2023-05-01T23:24:20.311Z,20.00
2023-05-01T23:26:48.045Z,19.80
2023-05-01T23:29:17.901Z,20.20
2023-05-01T23:31:47.699Z,20.50
2023-05-01T23:34:20.926Z,20.50
2023-05-01T23:36:48.111Z,20.50
2023-05-01T23:39:16.352Z,20.60
2023-05-01T23:41:43.686Z,20.70
2023-05-01T23:44:11.330Z,20.20
2023-05-01T23:46:38.632Z,20.00
2023-05-01T23:49:07.062Z,20.20
2023-05-01T23:51:34.114Z,20.50
2023-05-01T23:54:01.499Z,20.50
2023-05-01T23:56:28.549Z,20.60
2023-05-01T23:58:55.696Z,20.70
